createdAt,value
2023-05-16T00:00:30.904Z,99.99
2023-05-16T00:01:30.992Z,99.99
2023-05-16T00:02:31.028Z,99.99
2023-05-16T00:03:31.020Z,99.99
2023-05-16T00:04:30.881Z,99.99
2023-05-16T00:05:30.808Z,99.99
2023-05-16T00:06:30.805Z,99.99
2023-05-16T00:07:30.789Z,99.99
2023-05-16T00:08:30.827Z,99.99
2023-05-16T00:09:30.784Z,99.99
2023-05-16T00:10:30.763Z,99.99
2023-05-16T00:11:30.727Z,99.99
2023-05-16T00:12:30.849Z,99.99
2023-05-16T00:13:30.708Z,99.99
2023-05-16T00:14:30.701Z,99.99
2023-05-16T00:15:30.639Z,99.99
2023-05-16T00:16:30.676Z,99.99
2023-05-16T00:17:30.707Z,99.99
2023-05-16T00:18:30.679Z,99.99
2023-05-16T00:19:30.640Z,99.99
2023-05-16T00:20:30.759Z,99.99
2023-05-16T00:21:30.688Z,99.99
2023-05-16T00:22:30.621Z,99.99
2023-05-16T00:23:30.577Z,99.99
2023-05-16T00:24:30.566Z,99.99
2023-05-16T00:25:30.567Z,99.99
2023-05-16T00:26:30.537Z,99.99
2023-05-16T00:27:51.499Z,99.99
2023-05-16T00:28:30.485Z,99.99
2023-05-16T00:29:30.460Z,99.99
2023-05-16T00:30:30.542Z,99.99
2023-05-16T00:31:30.504Z,99.99
2023-05-16T00:32:31.425Z,99.99
2023-05-16T00:33:30.424Z,99.99
2023-05-16T00:34:30.469Z,99.99
2023-05-16T00:35:30.485Z,99.99
2023-05-16T00:36:30.385Z,99.99
2023-05-16T00:37:30.373Z,99.99
2023-05-16T00:38:30.373Z,99.99
2023-05-16T00:39:30.351Z,99.99
2023-05-16T00:40:30.347Z,99.99
2023-05-16T00:41:30.322Z,99.99
2023-05-16T00:42:30.289Z,99.99
2023-05-16T00:43:30.317Z,99.99
2023-05-16T00:44:30.994Z,99.99
2023-05-16T00:45:30.343Z,99.99
2023-05-16T00:46:30.364Z,99.99
2023-05-16T00:47:30.263Z,99.99
2023-05-16T00:48:30.220Z,99.99
2023-05-16T00:49:30.190Z,99.99
2023-05-16T00:50:30.226Z,99.99
2023-05-16T00:51:30.212Z,99.99
2023-05-16T00:52:30.151Z,99.99
2023-05-16T00:53:30.159Z,99.99
2023-05-16T00:54:30.168Z,99.99
2023-05-16T00:55:30.140Z,99.99
2023-05-16T00:56:30.151Z,99.99
2023-05-16T00:57:30.128Z,99.99
2023-05-16T00:58:30.100Z,99.99
2023-05-16T00:59:30.103Z,99.99
2023-05-16T01:00:30.118Z,99.99
2023-05-16T01:01:30.193Z,99.99
2023-05-16T01:02:30.161Z,99.99
2023-05-16T01:03:30.042Z,99.99
2023-05-16T01:04:30.007Z,99.99
2023-05-16T01:05:30.166Z,99.99
2023-05-16T01:06:30.018Z,99.99
2023-05-16T01:07:30.034Z,99.99
2023-05-16T01:08:29.928Z,99.99
2023-05-16T01:09:29.995Z,99.99
2023-05-16T01:10:29.966Z,99.99
2023-05-16T01:11:29.927Z,99.99
2023-05-16T01:12:29.930Z,99.99
2023-05-16T01:13:29.912Z,99.99
2023-05-16T01:14:32.618Z,99.99
2023-05-16T01:15:30.014Z,99.99
2023-05-16T01:16:29.964Z,99.99
2023-05-16T01:17:29.879Z,99.99
2023-05-16T01:18:29.834Z,99.99
2023-05-16T01:19:29.960Z,99.99
2023-05-16T01:20:29.889Z,99.99
2023-05-16T01:21:29.850Z,99.99
2023-05-16T01:22:29.841Z,99.99
2023-05-16T01:23:29.760Z,99.99
2023-05-16T01:24:29.758Z,99.99
2023-05-16T01:25:29.771Z,99.99
2023-05-16T01:26:29.705Z,99.99
2023-05-16T01:27:29.757Z,99.99
2023-05-16T01:28:38.403Z,99.99
2023-05-16T01:29:29.644Z,99.99
2023-05-16T01:30:29.669Z,99.99
2023-05-16T01:31:29.678Z,99.99
2023-05-16T01:32:29.646Z,99.99
2023-05-16T01:33:29.629Z,99.99
2023-05-16T01:34:29.626Z,99.99
2023-05-16T01:35:29.609Z,99.99
2023-05-16T01:36:29.573Z,99.99
2023-05-16T01:37:29.571Z,99.99
2023-05-16T01:38:29.527Z,99.99
2023-05-16T01:39:29.530Z,99.99
2023-05-16T01:40:29.518Z,99.99
2023-05-16T01:41:29.513Z,99.99
2023-05-16T01:42:29.522Z,99.99
2023-05-16T01:43:29.551Z,99.99
2023-05-16T01:44:29.584Z,99.99
2023-05-16T01:45:29.908Z,99.99
2023-05-16T01:46:29.584Z,99.99
2023-05-16T01:47:29.499Z,99.99
2023-05-16T01:48:29.466Z,99.99
2023-05-16T01:49:29.396Z,99.99
2023-05-16T01:50:29.405Z,99.99
2023-05-16T01:51:29.371Z,99.99
2023-05-16T01:52:29.434Z,99.99
2023-05-16T01:53:29.410Z,99.99
2023-05-16T01:54:29.345Z,99.99
2023-05-16T01:55:29.346Z,99.99
2023-05-16T01:56:29.311Z,99.99
2023-05-16T01:57:29.350Z,99.99
2023-05-16T01:58:29.617Z,99.99
2023-05-16T01:59:29.281Z,99.99
2023-05-16T02:00:29.337Z,99.99
2023-05-16T02:01:29.376Z,99.99
2023-05-16T02:02:29.291Z,99.99
2023-05-16T02:03:29.256Z,99.99
2023-05-16T02:04:29.207Z,99.99
2023-05-16T02:05:29.452Z,99.99
2023-05-16T02:06:29.238Z,99.99
2023-05-16T02:07:29.199Z,99.99
2023-05-16T02:08:29.187Z,99.99
2023-05-16T02:09:29.154Z,99.99
2023-05-16T02:10:29.181Z,99.99
2023-05-16T02:11:29.121Z,99.99
2023-05-16T02:12:29.109Z,99.99
2023-05-16T02:13:29.078Z,99.99
2023-05-16T02:14:29.109Z,99.99
2023-05-16T02:15:29.320Z,99.99
2023-05-16T02:16:29.073Z,99.99
2023-05-16T02:17:29.079Z,99.99
2023-05-16T02:18:29.063Z,99.99
2023-05-16T02:19:29.007Z,99.99
2023-05-16T02:20:29.025Z,99.99
2023-05-16T02:21:29.010Z,99.99
2023-05-16T02:22:29.068Z,99.99
2023-05-16T02:23:29.018Z,99.99
2023-05-16T02:24:29.026Z,99.99
2023-05-16T02:25:29.146Z,99.99
2023-05-16T02:26:28.940Z,99.99
2023-05-16T02:27:28.914Z,99.99
2023-05-16T02:28:28.882Z,99.99
2023-05-16T02:29:28.906Z,99.99
2023-05-16T02:30:28.869Z,99.99
2023-05-16T02:31:28.973Z,99.99
2023-05-16T02:32:28.927Z,99.99
2023-05-16T02:33:28.858Z,99.99
2023-05-16T02:34:28.837Z,99.99
2023-05-16T02:35:29.046Z,99.99
2023-05-16T02:36:28.802Z,99.99
2023-05-16T02:37:28.829Z,99.99
2023-05-16T02:38:28.865Z,99.99
2023-05-16T02:39:28.782Z,99.99
2023-05-16T02:40:28.769Z,99.99
2023-05-16T02:41:28.786Z,99.99
2023-05-16T02:42:28.753Z,99.99
2023-05-16T02:43:28.726Z,99.99
2023-05-16T02:44:28.725Z,99.99
2023-05-16T02:45:28.871Z,99.99
2023-05-16T02:46:28.794Z,99.99
2023-05-16T02:47:28.744Z,99.99
2023-05-16T02:48:28.655Z,99.99
2023-05-16T02:49:28.628Z,99.99
2023-05-16T02:50:28.677Z,99.99
2023-05-16T02:51:28.641Z,99.99
2023-05-16T02:52:28.645Z,99.99
2023-05-16T02:53:28.597Z,99.99
2023-05-16T02:54:28.673Z,99.99
2023-05-16T02:55:28.622Z,99.99
2023-05-16T02:56:28.599Z,99.99
2023-05-16T02:57:28.640Z,99.99
2023-05-16T02:58:28.567Z,99.99
2023-05-16T02:59:28.612Z,99.99
2023-05-16T03:00:28.484Z,99.99
2023-05-16T03:01:28.505Z,99.99
2023-05-16T03:02:28.611Z,99.99
2023-05-16T03:03:28.584Z,99.99
2023-05-16T03:04:28.536Z,99.99
2023-05-16T03:05:28.746Z,99.99
2023-05-16T03:06:28.608Z,99.99
2023-05-16T03:07:28.429Z,99.99
2023-05-16T03:08:28.458Z,99.99
2023-05-16T03:09:28.521Z,99.99
2023-05-16T03:10:28.400Z,99.99
2023-05-16T03:11:28.386Z,99.99
2023-05-16T03:12:28.418Z,99.99
2023-05-16T03:13:28.360Z,99.99
2023-05-16T03:14:28.383Z,99.99
2023-05-16T03:15:28.628Z,99.99
2023-05-16T03:16:28.319Z,99.99
2023-05-16T03:17:28.301Z,99.99
2023-05-16T03:18:28.260Z,99.99
2023-05-16T03:19:28.289Z,99.99
2023-05-16T03:20:28.282Z,99.99
2023-05-16T03:21:28.250Z,99.99
2023-05-16T03:22:28.219Z,99.99
2023-05-16T03:23:28.224Z,99.99
2023-05-16T03:24:28.240Z,99.99
2023-05-16T03:25:28.308Z,99.99
2023-05-16T03:26:28.164Z,99.99
2023-05-16T03:27:28.223Z,99.99
2023-05-16T03:28:31.198Z,99.99
2023-05-16T03:29:28.236Z,99.99
2023-05-16T03:30:28.131Z,99.99
2023-05-16T03:31:28.139Z,99.99
2023-05-16T03:32:28.186Z,99.99
2023-05-16T03:33:28.155Z,99.99
2023-05-16T03:34:28.115Z,99.99
2023-05-16T03:35:28.252Z,99.99
2023-05-16T03:36:28.036Z,99.99
2023-05-16T03:37:28.173Z,99.99
2023-05-16T03:38:28.027Z,99.99
2023-05-16T03:39:28.053Z,99.99
2023-05-16T03:40:28.071Z,99.99
2023-05-16T03:41:27.976Z,99.99
2023-05-16T03:42:28.094Z,99.99
2023-05-16T03:43:27.990Z,99.99
2023-05-16T03:44:28.222Z,99.99
2023-05-16T03:45:28.255Z,99.99
2023-05-16T03:46:28.034Z,99.99
2023-05-16T03:47:27.944Z,99.99
2023-05-16T03:48:27.991Z,99.99
2023-05-16T03:49:27.878Z,99.99
2023-05-16T03:50:27.880Z,99.99
2023-05-16T03:51:27.874Z,99.99
2023-05-16T03:52:27.850Z,99.99
2023-05-16T03:53:27.846Z,99.99
2023-05-16T03:54:27.838Z,99.99
2023-05-16T03:55:28.039Z,99.99
2023-05-16T03:56:27.904Z,99.99
2023-05-16T03:57:27.797Z,99.99
2023-05-16T03:58:27.902Z,99.99
2023-05-16T03:59:27.798Z,99.99
2023-05-16T04:00:27.740Z,99.99
2023-05-16T04:01:27.750Z,99.99
2023-05-16T04:02:28.495Z,99.99
2023-05-16T04:03:27.811Z,99.99
2023-05-16T04:04:27.746Z,99.99
2023-05-16T04:05:27.995Z,99.99
2023-05-16T04:06:27.750Z,99.99
2023-05-16T04:07:27.795Z,99.99
2023-05-16T04:08:27.706Z,99.99
2023-05-16T04:09:27.652Z,99.99
2023-05-16T04:10:27.696Z,99.99
2023-05-16T04:11:27.670Z,99.99
2023-05-16T04:12:27.591Z,99.99
2023-05-16T04:13:27.680Z,99.99
2023-05-16T04:14:27.583Z,99.99
2023-05-16T04:15:27.875Z,99.99
2023-05-16T04:16:27.628Z,99.99
2023-05-16T04:17:27.582Z,99.99
2023-05-16T04:18:27.565Z,99.99
2023-05-16T04:19:27.548Z,99.99
2023-05-16T04:20:27.782Z,99.99
2023-05-16T04:21:27.532Z,99.99
2023-05-16T04:22:27.610Z,99.99
2023-05-16T04:23:27.477Z,99.99
2023-05-16T04:24:27.564Z,99.99
2023-05-16T04:25:27.962Z,99.99
2023-05-16T04:26:27.439Z,99.99
2023-05-16T04:27:27.500Z,99.99
2023-05-16T04:28:27.467Z,99.99
2023-05-16T04:29:27.381Z,99.99
2023-05-16T04:30:27.414Z,99.99
2023-05-16T04:31:27.361Z,99.99
2023-05-16T04:32:27.562Z,99.99
2023-05-16T04:33:27.539Z,99.99
2023-05-16T04:34:27.340Z,99.99
2023-05-16T04:35:27.641Z,99.99
2023-05-16T04:36:27.402Z,99.99
2023-05-16T04:37:27.408Z,99.99
2023-05-16T04:38:27.408Z,99.99
2023-05-16T04:39:27.388Z,99.99
2023-05-16T04:40:27.284Z,99.99
2023-05-16T04:41:27.366Z,99.99
2023-05-16T04:42:27.334Z,99.99
2023-05-16T04:43:27.215Z,99.99
2023-05-16T04:44:27.551Z,99.99
2023-05-16T04:45:27.450Z,99.99
2023-05-16T04:46:27.198Z,99.99
2023-05-16T04:47:27.238Z,99.99
2023-05-16T04:48:27.178Z,99.99
2023-05-16T04:49:27.148Z,99.99
2023-05-16T04:50:27.110Z,99.99
2023-05-16T04:51:27.172Z,99.99
2023-05-16T04:52:27.095Z,99.99
2023-05-16T04:53:27.130Z,99.99
2023-05-16T04:54:27.101Z,99.99
2023-05-16T04:55:27.433Z,99.99
2023-05-16T04:56:27.078Z,99.99
2023-05-16T04:57:27.107Z,99.99
2023-05-16T04:58:27.068Z,99.99
2023-05-16T04:59:27.246Z,99.99
2023-05-16T05:00:27.221Z,99.99
2023-05-16T05:01:27.226Z,99.99
2023-05-16T05:02:28.013Z,99.99
2023-05-16T05:03:27.061Z,99.99
2023-05-16T05:04:27.224Z,99.99
2023-05-16T05:05:27.309Z,99.99
2023-05-16T05:06:27.345Z,99.99
2023-05-16T05:07:27.139Z,99.77
2023-05-16T05:08:26.948Z,98.79
2023-05-16T05:09:26.938Z,99.21
2023-05-16T05:10:26.908Z,98.69
2023-05-16T05:11:26.888Z,99.21
2023-05-16T05:12:26.972Z,99.51
2023-05-16T05:13:26.925Z,99.16
2023-05-16T05:14:26.913Z,98.54
2023-05-16T05:15:26.963Z,97.92
2023-05-16T05:16:26.828Z,98.19
2023-05-16T05:17:26.913Z,97.27
2023-05-16T05:18:26.845Z,96.85
2023-05-16T05:19:26.871Z,96.85
2023-05-16T05:20:26.750Z,96.14
2023-05-16T05:21:26.749Z,96.44
2023-05-16T05:22:26.765Z,96.55
2023-05-16T05:23:26.843Z,96.55
2023-05-16T05:24:26.708Z,96.95
2023-05-16T05:25:27.022Z,95.62
2023-05-16T05:26:26.685Z,96.55
2023-05-16T05:27:26.774Z,96.65
2023-05-16T05:28:26.763Z,96.34
2023-05-16T05:29:26.808Z,96.23
2023-05-16T05:30:26.674Z,96.23
2023-05-16T05:31:26.671Z,96.60
2023-05-16T05:32:26.665Z,95.98
2023-05-16T05:33:26.646Z,95.57
2023-05-16T05:34:26.686Z,95.37
2023-05-16T05:35:26.756Z,95.68
2023-05-16T05:36:26.555Z,95.98
2023-05-16T05:37:26.597Z,95.47
2023-05-16T05:38:26.518Z,94.45
2023-05-16T05:39:26.584Z,94.51
2023-05-16T05:40:26.494Z,94.30
2023-05-16T05:41:26.606Z,94.20
2023-05-16T05:42:26.507Z,94.05
2023-05-16T05:43:26.501Z,94.26
2023-05-16T05:44:26.446Z,93.54
2023-05-16T05:45:26.668Z,93.23
2023-05-16T05:46:26.480Z,92.35
2023-05-16T05:47:26.555Z,92.72
2023-05-16T05:48:26.392Z,92.93
2023-05-16T05:49:26.474Z,92.76
2023-05-16T05:50:26.401Z,92.76
2023-05-16T05:51:26.414Z,92.46
2023-05-16T05:52:26.388Z,92.66
2023-05-16T05:53:26.386Z,93.02
2023-05-16T05:54:26.334Z,92.41
2023-05-16T05:55:26.688Z,92.93
2023-05-16T05:56:26.324Z,92.00
2023-05-16T05:57:26.358Z,91.38
2023-05-16T05:58:26.340Z,91.35
2023-05-16T05:59:26.362Z,91.44
2023-05-16T06:00:26.233Z,91.44
2023-05-16T06:01:26.256Z,91.65
2023-05-16T06:02:26.420Z,92.22
2023-05-16T06:03:26.282Z,91.82
2023-05-16T06:04:26.176Z,91.09
2023-05-16T06:05:26.411Z,91.20
2023-05-16T06:06:26.252Z,90.79
2023-05-16T06:07:26.253Z,89.04
2023-05-16T06:08:26.153Z,89.76
2023-05-16T06:09:26.323Z,89.25
2023-05-16T06:10:26.129Z,89.97
2023-05-16T06:11:26.254Z,90.48
2023-05-16T06:12:26.102Z,89.87
2023-05-16T06:13:26.184Z,88.84
2023-05-16T06:14:26.106Z,88.98
2023-05-16T06:15:26.301Z,89.70
2023-05-16T06:16:26.090Z,90.28
2023-05-16T06:17:26.082Z,89.97
2023-05-16T06:18:26.008Z,89.97
2023-05-16T06:19:26.225Z,89.25
2023-05-16T06:20:25.997Z,88.74
2023-05-16T06:21:25.993Z,87.61
2023-05-16T06:22:25.991Z,87.82
2023-05-16T06:23:25.968Z,87.92
2023-05-16T06:24:25.987Z,88.94
2023-05-16T06:25:26.203Z,88.33
2023-05-16T06:26:25.971Z,88.08
2023-05-16T06:27:25.910Z,88.29
2023-05-16T06:28:25.896Z,89.00
2023-05-16T06:29:25.883Z,88.18
2023-05-16T06:30:25.961Z,87.16
2023-05-16T06:31:25.860Z,86.96
2023-05-16T06:32:25.877Z,85.22
2023-05-16T06:33:25.832Z,86.04
2023-05-16T06:34:25.904Z,86.79
2023-05-16T06:35:25.966Z,86.65
2023-05-16T06:36:25.741Z,86.55
2023-05-16T06:37:25.743Z,87.77
2023-05-16T06:38:25.769Z,87.37
2023-05-16T06:39:25.787Z,87.16
2023-05-16T06:40:25.731Z,86.85
2023-05-16T06:41:25.801Z,86.44
2023-05-16T06:42:25.839Z,86.14
2023-05-16T06:43:25.658Z,86.44
2023-05-16T06:44:33.252Z,86.61
2023-05-16T06:45:25.836Z,86.30
2023-05-16T06:46:25.811Z,85.07
2023-05-16T06:47:25.726Z,85.28
2023-05-16T06:48:25.716Z,84.63
2023-05-16T06:49:25.624Z,84.52
2023-05-16T06:50:25.640Z,84.48
2023-05-16T06:51:25.620Z,83.36
2023-05-16T06:52:25.688Z,82.84
2023-05-16T06:53:25.687Z,84.79
2023-05-16T06:54:25.532Z,83.56
2023-05-16T06:55:25.720Z,82.70
2023-05-16T06:56:25.540Z,83.22
2023-05-16T06:57:25.514Z,82.09
2023-05-16T06:58:25.486Z,82.40
2023-05-16T06:59:26.885Z,82.09
2023-05-16T07:00:25.455Z,81.54
2023-05-16T07:01:25.547Z,81.85
2023-05-16T07:02:25.534Z,80.99
2023-05-16T07:03:25.525Z,81.10
2023-05-16T07:04:25.482Z,79.83
2023-05-16T07:05:25.532Z,79.16
2023-05-16T07:06:25.368Z,79.97
2023-05-16T07:07:25.371Z,80.38
2023-05-16T07:08:25.371Z,78.95
2023-05-16T07:09:25.350Z,77.59
2023-05-16T07:10:25.411Z,76.67
2023-05-16T07:11:25.367Z,76.32
2023-05-16T07:12:25.377Z,75.10
2023-05-16T07:13:25.305Z,75.20
2023-05-16T07:14:26.054Z,73.10
2023-05-16T07:15:25.475Z,73.60
2023-05-16T07:16:25.269Z,75.37
2023-05-16T07:17:25.291Z,74.90
2023-05-16T07:18:25.251Z,75.17
2023-05-16T07:19:25.345Z,74.46
2023-05-16T07:20:25.256Z,75.34
2023-05-16T07:21:25.313Z,75.24
2023-05-16T07:22:25.194Z,74.90
2023-05-16T07:23:25.193Z,74.55
2023-05-16T07:24:25.122Z,73.47
2023-05-16T07:25:25.223Z,73.16
2023-05-16T07:26:25.090Z,72.89
2023-05-16T07:27:25.186Z,73.10
2023-05-16T07:28:25.078Z,73.30
2023-05-16T07:29:25.057Z,74.79
2023-05-16T07:30:25.312Z,73.57
2023-05-16T07:31:25.056Z,73.27
2023-05-16T07:32:25.044Z,72.86
2023-05-16T07:33:25.008Z,71.97
2023-05-16T07:34:25.016Z,72.38
2023-05-16T07:35:25.002Z,71.05
2023-05-16T07:36:24.965Z,70.85
2023-05-16T07:37:24.895Z,71.77
2023-05-16T07:38:25.003Z,71.67
2023-05-16T07:39:24.921Z,71.87
2023-05-16T07:40:24.939Z,71.15
2023-05-16T07:41:24.862Z,72.17
2023-05-16T07:42:24.850Z,71.36
2023-05-16T07:43:25.549Z,71.46
2023-05-16T07:44:24.846Z,71.67
2023-05-16T07:45:24.802Z,72.28
2023-05-16T07:46:24.838Z,71.77
2023-05-16T07:47:24.890Z,72.07
2023-05-16T07:48:24.776Z,72.69
2023-05-16T07:49:24.726Z,72.99
2023-05-16T07:50:24.751Z,73.06
2023-05-16T07:51:24.739Z,73.77
2023-05-16T07:52:24.723Z,72.65
2023-05-16T07:53:24.745Z,72.45
2023-05-16T07:54:24.693Z,72.92
2023-05-16T07:55:24.790Z,71.94
2023-05-16T07:56:24.729Z,72.96
2023-05-16T07:57:25.259Z,72.31
2023-05-16T07:58:24.594Z,71.56
2023-05-16T07:59:24.622Z,71.15
2023-05-16T08:00:24.621Z,70.34
2023-05-16T08:01:24.593Z,69.53
2023-05-16T08:02:24.746Z,70.68
2023-05-16T08:03:24.754Z,69.83
2023-05-16T08:04:24.557Z,69.35
2023-05-16T08:05:24.606Z,70.54
2023-05-16T08:06:24.520Z,69.73
2023-05-16T08:07:24.473Z,69.12
2023-05-16T08:08:24.442Z,69.63
2023-05-16T08:09:24.516Z,69.42
2023-05-16T08:10:24.432Z,70.75
2023-05-16T08:11:24.407Z,68.81
2023-05-16T08:12:24.417Z,69.42
2023-05-16T08:13:24.389Z,68.20
2023-05-16T08:14:24.383Z,69.29
2023-05-16T08:15:24.391Z,69.80
2023-05-16T08:16:24.357Z,70.31
2023-05-16T08:17:24.369Z,70.00
2023-05-16T08:18:24.415Z,69.83
2023-05-16T08:19:24.379Z,69.73
2023-05-16T08:20:24.269Z,70.27
2023-05-16T08:21:24.269Z,69.76
2023-05-16T08:22:24.361Z,69.79
2023-05-16T08:23:24.228Z,70.20
2023-05-16T08:24:24.303Z,71.15
2023-05-16T08:25:24.241Z,69.93
2023-05-16T08:26:24.216Z,70.47
2023-05-16T08:27:24.168Z,71.19
2023-05-16T08:28:24.180Z,71.09
2023-05-16T08:29:24.145Z,70.81
2023-05-16T08:30:24.170Z,70.92
2023-05-16T08:31:24.181Z,71.12
2023-05-16T08:32:24.101Z,71.70
2023-05-16T08:33:24.093Z,70.64
2023-05-16T08:34:24.079Z,70.75
2023-05-16T08:35:24.113Z,70.00
2023-05-16T08:36:24.074Z,69.90
2023-05-16T08:37:24.034Z,69.49
2023-05-16T08:38:23.999Z,68.03
2023-05-16T08:39:23.995Z,68.64
2023-05-16T08:40:24.007Z,69.56
2023-05-16T08:41:23.974Z,68.81
2023-05-16T08:42:23.980Z,69.39
2023-05-16T08:43:23.964Z,68.88
2023-05-16T08:44:23.927Z,66.61
2023-05-16T08:45:23.935Z,66.71
2023-05-16T08:46:24.019Z,65.19
2023-05-16T08:47:23.898Z,65.28
2023-05-16T08:48:23.957Z,64.06
2023-05-16T08:49:23.876Z,64.57
2023-05-16T08:50:23.860Z,64.78
2023-05-16T08:51:23.867Z,64.87
2023-05-16T08:52:23.797Z,65.80
2023-05-16T08:53:25.562Z,66.27
2023-05-16T08:54:24.564Z,65.86
2023-05-16T08:55:23.764Z,66.24
2023-05-16T08:56:23.775Z,64.18
2023-05-16T08:57:23.742Z,63.29
2023-05-16T08:58:23.741Z,64.20
2023-05-16T08:59:23.743Z,63.06
2023-05-16T09:00:23.740Z,63.57
2023-05-16T09:01:23.749Z,63.23
2023-05-16T09:02:23.671Z,62.75
2023-05-16T09:03:23.759Z,63.06
2023-05-16T09:04:23.872Z,62.65
2023-05-16T09:05:23.639Z,63.46
2023-05-16T09:06:23.702Z,63.39
2023-05-16T09:07:23.602Z,64.75
2023-05-16T09:08:23.581Z,64.87
2023-05-16T09:09:23.622Z,64.37
2023-05-16T09:10:23.557Z,64.87
2023-05-16T09:11:23.614Z,64.64
2023-05-16T09:12:23.536Z,64.23
2023-05-16T09:13:23.541Z,64.81
2023-05-16T09:14:23.497Z,64.38
2023-05-16T09:15:23.492Z,62.35
2023-05-16T09:16:23.538Z,63.57
2023-05-16T09:17:32.237Z,65.70
2023-05-16T09:18:24.495Z,64.92
2023-05-16T09:19:23.567Z,65.56
2023-05-16T09:20:23.413Z,66.58
2023-05-16T09:21:23.559Z,67.02
2023-05-16T09:22:23.396Z,66.91
2023-05-16T09:23:23.364Z,67.35
2023-05-16T09:24:23.397Z,67.25
2023-05-16T09:26:23.365Z,67.79
2023-05-16T09:27:23.313Z,67.59
2023-05-16T09:28:23.318Z,67.49
2023-05-16T09:29:23.307Z,67.46
2023-05-16T09:30:23.308Z,67.32
2023-05-16T09:31:23.308Z,65.86
2023-05-16T09:32:23.259Z,65.94
2023-05-16T09:33:23.265Z,64.58
2023-05-16T09:34:23.253Z,63.70
2023-05-16T09:35:39.175Z,65.02
2023-05-16T09:36:24.241Z,65.12
2023-05-16T09:37:23.183Z,63.83
2023-05-16T09:38:23.177Z,64.03
2023-05-16T09:39:23.156Z,63.01
2023-05-16T09:40:23.151Z,62.94
2023-05-16T09:41:23.111Z,61.93
2023-05-16T09:42:23.157Z,62.43
2023-05-16T09:43:23.117Z,62.16
2023-05-16T09:44:23.120Z,63.07
2023-05-16T09:45:23.069Z,64.17
2023-05-16T09:46:23.229Z,64.17
2023-05-16T09:47:23.065Z,65.19
2023-05-16T09:48:23.037Z,64.98
2023-05-16T09:49:23.026Z,64.98
2023-05-16T09:50:23.013Z,65.08
2023-05-16T09:51:22.990Z,65.52
2023-05-16T09:52:22.973Z,65.11
2023-05-16T09:53:23.053Z,65.59
2023-05-16T09:54:23.016Z,66.27
2023-05-16T09:55:22.923Z,66.75
2023-05-16T09:56:22.942Z,65.63
2023-05-16T09:57:22.945Z,65.30
2023-05-16T09:58:22.947Z,65.97
2023-05-16T09:59:23.000Z,64.52
2023-05-16T10:00:22.881Z,64.29
2023-05-16T10:01:22.917Z,64.49
2023-05-16T10:02:22.999Z,65.07
2023-05-16T10:03:22.916Z,62.74
2023-05-16T10:04:23.115Z,64.56
2023-05-16T10:05:22.833Z,63.28
2023-05-16T10:06:22.790Z,64.32
2023-05-16T10:07:22.795Z,65.77
2023-05-16T10:08:22.767Z,66.18
2023-05-16T10:09:22.781Z,66.18
2023-05-16T10:10:22.775Z,66.28
2023-05-16T10:11:22.775Z,66.49
2023-05-16T10:12:22.800Z,67.02
2023-05-16T10:13:22.728Z,67.53
2023-05-16T10:14:22.674Z,67.36
2023-05-16T10:15:22.686Z,68.58
2023-05-16T10:16:22.675Z,69.02
2023-05-16T10:17:22.692Z,69.76
2023-05-16T10:18:22.626Z,70.48
2023-05-16T10:19:22.700Z,71.50
2023-05-16T10:20:22.580Z,71.26
2023-05-16T10:21:22.638Z,70.86
2023-05-16T10:22:22.586Z,71.26
2023-05-16T10:23:22.564Z,71.53
2023-05-16T10:24:22.539Z,69.67
2023-05-16T10:25:22.522Z,69.43
2023-05-16T10:26:22.538Z,68.55
2023-05-16T10:27:22.555Z,69.43
2023-05-16T10:28:22.507Z,69.64
2023-05-16T10:29:22.450Z,68.62
2023-05-16T10:30:22.518Z,70.14
2023-05-16T10:31:22.607Z,69.74
2023-05-16T10:32:22.493Z,67.83
2023-05-16T10:33:22.435Z,67.97
2023-05-16T10:34:22.423Z,69.12
2023-05-16T10:35:22.430Z,69.76
2023-05-16T10:36:22.419Z,70.21
2023-05-16T10:37:22.389Z,70.00
2023-05-16T10:38:22.331Z,70.31
2023-05-16T10:39:22.446Z,70.61
2023-05-16T10:40:22.334Z,70.92
2023-05-16T10:41:22.296Z,71.43
2023-05-16T10:42:22.296Z,70.89
2023-05-16T10:43:22.293Z,71.06
2023-05-16T10:44:22.255Z,70.14
2023-05-16T10:45:22.257Z,69.93
2023-05-16T10:46:22.232Z,69.32
2023-05-16T10:47:22.210Z,69.49
2023-05-16T10:48:22.283Z,69.60
2023-05-16T10:49:22.188Z,69.09
2023-05-16T10:50:22.225Z,69.49
2023-05-16T10:51:22.148Z,69.46
2023-05-16T10:52:22.162Z,68.41
2023-05-16T10:53:22.200Z,68.21
2023-05-16T10:54:22.116Z,66.25
2023-05-16T10:55:22.126Z,65.78
2023-05-16T10:56:22.138Z,64.46
2023-05-16T10:57:22.308Z,65.48
2023-05-16T10:58:22.077Z,64.67
2023-05-16T10:59:25.660Z,65.85
2023-05-16T11:00:22.030Z,65.04
2023-05-16T11:01:22.133Z,64.37
2023-05-16T11:02:22.027Z,63.86
2023-05-16T11:03:22.110Z,62.40
2023-05-16T11:04:21.990Z,61.36
2023-05-16T11:05:21.985Z,63.73
2023-05-16T11:06:23.586Z,62.52
2023-05-16T11:07:22.027Z,62.46
2023-05-16T11:08:21.956Z,62.19
2023-05-16T11:09:21.938Z,60.65
2023-05-16T11:10:21.953Z,60.66
2023-05-16T11:11:21.881Z,61.20
2023-05-16T11:12:21.987Z,61.60
2023-05-16T11:13:21.867Z,58.47
2023-05-16T11:14:21.863Z,58.87
2023-05-16T11:15:21.873Z,58.06
2023-05-16T11:16:21.863Z,57.91
2023-05-16T11:17:21.846Z,60.24
2023-05-16T11:18:21.910Z,61.66
2023-05-16T11:19:21.799Z,60.65
2023-05-16T11:20:21.828Z,60.98
2023-05-16T11:21:21.859Z,62.05
2023-05-16T11:22:21.742Z,64.96
2023-05-16T11:23:21.810Z,66.92
2023-05-16T11:24:21.726Z,68.88
2023-05-16T11:25:21.722Z,70.34
2023-05-16T11:26:21.703Z,72.41
2023-05-16T11:27:21.694Z,74.18
2023-05-16T11:28:21.685Z,76.35
2023-05-16T11:29:21.687Z,77.51
2023-05-16T11:30:21.650Z,80.51
2023-05-16T11:31:21.690Z,82.08
2023-05-16T11:32:21.645Z,82.79
2023-05-16T11:33:21.691Z,79.66
2023-05-16T11:34:21.588Z,80.79
2023-05-16T11:35:21.559Z,81.71
2023-05-16T11:36:21.552Z,82.01
2023-05-16T11:37:21.552Z,82.32
2023-05-16T11:38:21.530Z,82.93
2023-05-16T11:39:21.511Z,77.62
2023-05-16T11:40:21.534Z,77.59
2023-05-16T11:41:21.488Z,76.63
2023-05-16T11:42:21.469Z,75.98
2023-05-16T11:43:21.470Z,75.44
2023-05-16T11:44:21.445Z,73.16
2023-05-16T11:45:21.446Z,72.78
2023-05-16T11:46:21.478Z,71.16
2023-05-16T11:47:21.383Z,69.19
2023-05-16T11:48:32.473Z,68.12
2023-05-16T11:49:22.429Z,64.67
2023-05-16T11:50:21.356Z,65.50
2023-05-16T11:51:21.339Z,62.85
2023-05-16T11:52:21.331Z,59.40
2023-05-16T11:53:21.325Z,56.52
2023-05-16T11:54:21.290Z,55.04
2023-05-16T11:55:32.482Z,56.60
2023-05-16T11:56:22.288Z,54.99
2023-05-16T11:57:21.259Z,54.13
2023-05-16T11:58:21.261Z,52.89
2023-05-16T11:59:21.242Z,50.53
2023-05-16T12:00:21.260Z,53.22
2023-05-16T12:01:21.208Z,51.68
2023-05-16T12:02:21.208Z,52.01
2023-05-16T12:03:21.339Z,51.21
2023-05-16T12:04:21.378Z,53.12
2023-05-16T12:05:21.223Z,53.40
2023-05-16T12:06:21.200Z,50.35
2023-05-16T12:07:23.264Z,49.63
2023-05-16T12:08:21.121Z,49.33
2023-05-16T12:09:21.102Z,49.65
2023-05-16T12:10:21.097Z,51.97
2023-05-16T12:11:21.061Z,54.25
2023-05-16T12:12:21.064Z,55.62
2023-05-16T12:13:21.039Z,56.57
2023-05-16T12:14:21.034Z,56.10
2023-05-16T12:15:21.052Z,56.57
2023-05-16T12:16:21.038Z,54.73
2023-05-16T12:17:20.999Z,54.15
2023-05-16T12:18:20.977Z,53.55
2023-05-16T12:19:20.981Z,51.43
2023-05-16T12:20:20.976Z,51.84
2023-05-16T12:21:20.945Z,51.86
2023-05-16T12:22:21.001Z,48.92
2023-05-16T12:23:20.923Z,49.42
2023-05-16T12:24:20.904Z,49.42
2023-05-16T12:25:20.911Z,48.47
2023-05-16T12:26:20.866Z,48.85
2023-05-16T12:27:20.870Z,47.86
2023-05-16T12:28:20.835Z,49.65
2023-05-16T12:29:20.859Z,51.49
2023-05-16T12:30:20.839Z,48.55
2023-05-16T12:31:31.250Z,49.37
2023-05-16T12:32:21.861Z,51.10
2023-05-16T12:33:20.802Z,51.56
2023-05-16T12:34:20.794Z,50.93
2023-05-16T12:35:20.764Z,50.71
2023-05-16T12:36:20.742Z,48.63
2023-05-16T12:37:20.737Z,48.01
2023-05-16T12:38:20.726Z,49.90
2023-05-16T12:39:20.696Z,49.37
2023-05-16T12:40:20.705Z,48.72
2023-05-16T12:41:20.713Z,47.85
2023-05-16T12:42:21.770Z,46.61
2023-05-16T12:43:20.647Z,45.87
2023-05-16T12:44:20.618Z,47.45
2023-05-16T12:45:20.632Z,46.72
2023-05-16T12:46:20.614Z,49.07
2023-05-16T12:47:20.598Z,47.41
2023-05-16T12:48:20.565Z,51.14
2023-05-16T12:49:20.579Z,48.49
2023-05-16T12:50:20.570Z,49.37
2023-05-16T12:51:20.539Z,47.45
2023-05-16T12:52:20.553Z,48.76
2023-05-16T12:53:20.500Z,49.52